sensor_id;sensor_type;location;lat;lon;timestamp;temperature;humidity
64951;DHT22;51482;47.014;7.652;2022-11-20T00:01:21;5.30;99.90
64951;DHT22;51482;47.014;7.652;2022-11-20T00:03:47;5.80;99.90
64951;DHT22;51482;47.014;7.652;2022-11-20T00:06:15;5.50;99.90
64951;DHT22;51482;47.014;7.652;2022-11-20T00:08:41;5.20;99.90
64951;DHT22;51482;47.014;7.652;2022-11-20T00:11:09;5.30;99.90
64951;DHT22;51482;47.014;7.652;2022-11-20T00:13:35;5.70;99.90
64951;DHT22;51482;47.014;7.652;2022-11-20T00:16:03;5.70;99.90
64951;DHT22;51482;47.014;7.652;2022-11-20T00:18:29;5.20;99.90
64951;DHT22;51482;47.014;7.652;2022-11-20T00:21:06;5.80;99.90
64951;DHT22;51482;47.014;7.652;2022-11-20T00:23:33;5.30;99.90
64951;DHT22;51482;47.014;7.652;2022-11-20T00:26:07;5.40;99.90
64951;DHT22;51482;47.014;7.652;2022-11-20T00:28:33;5.30;99.90
64951;DHT22;51482;47.014;7.652;2022-11-20T00:31:04;5.10;99.90
64951;DHT22;51482;47.014;7.652;2022-11-20T00:33:30;5.90;99.90
64951;DHT22;51482;47.014;7.652;2022-11-20T00:36:03;5.10;99.90
64951;DHT22;51482;47.014;7.652;2022-11-20T00:38:30;5.40;99.90
64951;DHT22;51482;47.014;7.652;2022-11-20T00:40:57;6.10;99.90
64951;DHT22;51482;47.014;7.652;2022-11-20T00:43:23;5.40;99.90
64951;DHT22;51482;47.014;7.652;2022-11-20T00:45:49;6.00;99.90
64951;DHT22;51482;47.014;7.652;2022-11-20T00:48:14;6.10;99.90
64951;DHT22;51482;47.014;7.652;2022-11-20T00:50:41;6.00;99.90
64951;DHT22;51482;47.014;7.652;2022-11-20T00:53:07;6.20;99.90
64951;DHT22;51482;47.014;7.652;2022-11-20T00:55:32;6.10;99.90
64951;DHT22;51482;47.014;7.652;2022-11-20T00:57:58;5.40;99.90
64951;DHT22;51482;47.014;7.652;2022-11-20T01:00:23;6.00;99.90
64951;DHT22;51482;47.014;7.652;2022-11-20T01:02:49;6.10;99.90
64951;DHT22;51482;47.014;7.652;2022-11-20T01:05:14;5.50;99.90
64951;DHT22;51482;47.014;7.652;2022-11-20T01:07:40;5.40;99.90
64951;DHT22;51482;47.014;7.652;2022-11-20T01:10:06;5.90;99.90
64951;DHT22;51482;47.014;7.652;2022-11-20T01:12:31;5.40;99.90
64951;DHT22;51482;47.014;7.652;2022-11-20T01:14:57;5.60;99.90
64951;DHT22;51482;47.014;7.652;2022-11-20T01:17:22;6.20;99.90
64951;DHT22;51482;47.014;7.652;2022-11-20T01:19:49;6.10;99.90
64951;DHT22;51482;47.014;7.652;2022-11-20T01:22:15;6.10;99.90
64951;DHT22;51482;47.014;7.652;2022-11-20T01:24:41;6.00;99.90
64951;DHT22;51482;47.014;7.652;2022-11-20T01:27:06;6.00;99.90
64951;DHT22;51482;47.014;7.652;2022-11-20T01:29:32;5.90;99.90
64951;DHT22;51482;47.014;7.652;2022-11-20T01:31:58;5.90;99.90
64951;DHT22;51482;47.014;7.652;2022-11-20T01:34:23;5.90;99.90
64951;DHT22;51482;47.014;7.652;2022-11-20T01:36:50;6.00;99.90
64951;DHT22;51482;47.014;7.652;2022-11-20T01:39:21;6.20;99.90
64951;DHT22;51482;47.014;7.652;2022-11-20T01:41:48;5.50;99.90
64951;DHT22;51482;47.014;7.652;2022-11-20T01:44:48;6.10;99.90
64951;DHT22;51482;47.014;7.652;2022-11-20T01:47:20;5.80;99.90
64951;DHT22;51482;47.014;7.652;2022-11-20T01:50:03;6.10;99.90
64951;DHT22;51482;47.014;7.652;2022-11-20T01:52:39;5.50;99.90
64951;DHT22;51482;47.014;7.652;2022-11-20T01:55:09;5.40;99.90
64951;DHT22;51482;47.014;7.652;2022-11-20T01:57:35;5.50;99.90
64951;DHT22;51482;47.014;7.652;2022-11-20T02:00:08;6.10;99.90
64951;DHT22;51482;47.014;7.652;2022-11-20T02:02:35;5.50;99.90
64951;DHT22;51482;47.014;7.652;2022-11-20T02:05:09;6.10;99.90
64951;DHT22;51482;47.014;7.652;2022-11-20T02:07:37;5.50;99.90
64951;DHT22;51482;47.014;7.652;2022-11-20T02:10:03;6.10;99.90
64951;DHT22;51482;47.014;7.652;2022-11-20T02:12:28;5.50;99.90
64951;DHT22;51482;47.014;7.652;2022-11-20T02:15:13;6.00;99.90
64951;DHT22;51482;47.014;7.652;2022-11-20T02:17:38;6.10;99.90
64951;DHT22;51482;47.014;7.652;2022-11-20T02:20:04;6.10;99.90
64951;DHT22;51482;47.014;7.652;2022-11-20T02:22:35;5.50;99.90
64951;DHT22;51482;47.014;7.652;2022-11-20T02:25:04;6.00;99.90
64951;DHT22;51482;47.014;7.652;2022-11-20T02:27:31;5.50;99.90
64951;DHT22;51482;47.014;7.652;2022-11-20T02:30:00;5.50;99.90
64951;DHT22;51482;47.014;7.652;2022-11-20T02:32:33;5.90;99.90
64951;DHT22;51482;47.014;7.652;2022-11-20T02:35:38;5.50;99.90
64951;DHT22;51482;47.014;7.652;2022-11-20T02:37:57;5.60;99.90
64951;DHT22;51482;47.014;7.652;2022-11-20T02:40:23;6.20;99.90
64951;DHT22;51482;47.014;7.652;2022-11-20T02:42:55;6.30;99.90
64951;DHT22;51482;47.014;7.652;2022-11-20T02:45:22;5.60;99.90
64951;DHT22;51482;47.014;7.652;2022-11-20T02:47:48;6.10;99.90
64951;DHT22;51482;47.014;7.652;2022-11-20T02:50:14;6.20;99.90
64951;DHT22;51482;47.014;7.652;2022-11-20T02:52:39;6.20;99.90
64951;DHT22;51482;47.014;7.652;2022-11-20T02:55:05;6.00;99.90
64951;DHT22;51482;47.014;7.652;2022-11-20T02:57:31;5.60;99.90
64951;DHT22;51482;47.014;7.652;2022-11-20T02:59:56;5.70;99.90
64951;DHT22;51482;47.014;7.652;2022-11-20T03:02:22;5.60;99.90
64951;DHT22;51482;47.014;7.652;2022-11-20T03:04:47;6.30;99.90
64951;DHT22;51482;47.014;7.652;2022-11-20T03:07:13;5.70;99.90
64951;DHT22;51482;47.014;7.652;2022-11-20T03:09:39;5.70;99.90
64951;DHT22;51482;47.014;7.652;2022-11-20T03:12:05;6.20;99.90
64951;DHT22;51482;47.014;7.652;2022-11-20T03:14:30;5.80;99.90
64951;DHT22;51482;47.014;7.652;2022-11-20T03:16:56;5.50;99.90
64951;DHT22;51482;47.014;7.652;2022-11-20T03:19:22;5.60;99.90
64951;DHT22;51482;47.014;7.652;2022-11-20T03:21:48;6.30;99.90
64951;DHT22;51482;47.014;7.652;2022-11-20T03:24:14;5.70;99.90
64951;DHT22;51482;47.014;7.652;2022-11-20T03:26:40;6.20;99.90
64951;DHT22;51482;47.014;7.652;2022-11-20T03:29:06;5.70;99.90
64951;DHT22;51482;47.014;7.652;2022-11-20T03:31:34;6.30;99.90
64951;DHT22;51482;47.014;7.652;2022-11-20T03:34:00;5.80;99.90
64951;DHT22;51482;47.014;7.652;2022-11-20T03:36:27;5.80;99.90
64951;DHT22;51482;47.014;7.652;2022-11-20T03:38:56;6.40;99.90
64951;DHT22;51482;47.014;7.652;2022-11-20T03:41:24;5.90;99.90
64951;DHT22;51482;47.014;7.652;2022-11-20T03:43:52;5.90;99.90
64951;DHT22;51482;47.014;7.652;2022-11-20T03:46:18;6.50;99.90
64951;DHT22;51482;47.014;7.652;2022-11-20T03:48:43;5.80;99.90
64951;DHT22;51482;47.014;7.652;2022-11-20T03:53:36;5.80;99.90
64951;DHT22;51482;47.014;7.652;2022-11-20T03:56:02;5.90;99.90
64951;DHT22;51482;47.014;7.652;2022-11-20T03:58:28;6.50;99.90
64951;DHT22;51482;47.014;7.652;2022-11-20T04:00:53;6.10;99.90
64951;DHT22;51482;47.014;7.652;2022-11-20T04:03:19;6.60;99.90
64951;DHT22;51482;47.014;7.652;2022-11-20T04:05:44;6.60;99.90
64951;DHT22;51482;47.014;7.652;2022-11-20T04:08:10;6.30;99.90
64951;DHT22;51482;47.014;7.652;2022-11-20T04:10:35;6.40;99.90
64951;DHT22;51482;47.014;7.652;2022-11-20T04:13:01;6.20;99.90
64951;DHT22;51482;47.014;7.652;2022-11-20T04:15:26;6.20;99.90
64951;DHT22;51482;47.014;7.652;2022-11-20T04:17:53;6.30;99.90
64951;DHT22;51482;47.014;7.652;2022-11-20T04:20:18;6.20;99.90
64951;DHT22;51482;47.014;7.652;2022-11-20T04:22:44;6.40;99.90
64951;DHT22;51482;47.014;7.652;2022-11-20T04:25:10;5.70;99.90
64951;DHT22;51482;47.014;7.652;2022-11-20T04:27:35;5.80;99.90
64951;DHT22;51482;47.014;7.652;2022-11-20T04:30:01;6.40;99.90
64951;DHT22;51482;47.014;7.652;2022-11-20T04:32:27;6.40;99.90
64951;DHT22;51482;47.014;7.652;2022-11-20T04:34:52;5.80;99.90
64951;DHT22;51482;47.014;7.652;2022-11-20T04:37:18;5.80;99.90
64951;DHT22;51482;47.014;7.652;2022-11-20T04:39:43;6.20;99.90
64951;DHT22;51482;47.014;7.652;2022-11-20T04:42:10;6.40;99.90
64951;DHT22;51482;47.014;7.652;2022-11-20T04:44:54;5.70;99.90
64951;DHT22;51482;47.014;7.652;2022-11-20T04:47:20;5.70;99.90
64951;DHT22;51482;47.014;7.652;2022-11-20T04:49:45;6.10;99.90
64951;DHT22;51482;47.014;7.652;2022-11-20T04:52:11;5.30;99.90
64951;DHT22;51482;47.014;7.652;2022-11-20T04:54:36;6.20;99.90
64951;DHT22;51482;47.014;7.652;2022-11-20T04:57:02;6.20;99.90
64951;DHT22;51482;47.014;7.652;2022-11-20T04:59:27;6.20;99.90
64951;DHT22;51482;47.014;7.652;2022-11-20T05:01:53;5.90;99.90
64951;DHT22;51482;47.014;7.652;2022-11-20T05:04:18;6.00;99.90
64951;DHT22;51482;47.014;7.652;2022-11-20T05:06:44;6.00;99.90
64951;DHT22;51482;47.014;7.652;2022-11-20T05:09:11;6.00;99.90
64951;DHT22;51482;47.014;7.652;2022-11-20T05:11:37;4.90;99.90
64951;DHT22;51482;47.014;7.652;2022-11-20T05:14:02;6.10;99.90
64951;DHT22;51482;47.014;7.652;2022-11-20T05:16:28;6.30;99.90
64951;DHT22;51482;47.014;7.652;2022-11-20T05:18:54;5.70;99.90
64951;DHT22;51482;47.014;7.652;2022-11-20T05:21:20;5.70;99.90
64951;DHT22;51482;47.014;7.652;2022-11-20T05:23:46;5.70;99.90
64951;DHT22;51482;47.014;7.652;2022-11-20T05:26:15;6.30;99.90
64951;DHT22;51482;47.014;7.652;2022-11-20T05:28:40;6.40;99.90
64951;DHT22;51482;47.014;7.652;2022-11-20T05:31:15;6.40;99.90
64951;DHT22;51482;47.014;7.652;2022-11-20T05:33:42;5.70;99.90
64951;DHT22;51482;47.014;7.652;2022-11-20T05:36:08;6.20;99.90
64951;DHT22;51482;47.014;7.652;2022-11-20T05:38:33;5.60;99.90
64951;DHT22;51482;47.014;7.652;2022-11-20T05:41:13;5.70;99.90
64951;DHT22;51482;47.014;7.652;2022-11-20T05:43:42;5.70;99.90
64951;DHT22;51482;47.014;7.652;2022-11-20T05:46:09;6.20;99.90
64951;DHT22;51482;47.014;7.652;2022-11-20T05:48:35;5.90;99.90
64951;DHT22;51482;47.014;7.652;2022-11-20T05:51:03;6.40;99.90
64951;DHT22;51482;47.014;7.652;2022-11-20T05:53:29;6.30;99.90
64951;DHT22;51482;47.014;7.652;2022-11-20T05:55:59;6.40;99.90
64951;DHT22;51482;47.014;7.652;2022-11-20T05:58:24;6.30;99.90
64951;DHT22;51482;47.014;7.652;2022-11-20T06:00:50;5.70;99.90
64951;DHT22;51482;47.014;7.652;2022-11-20T06:03:16;6.10;99.90
64951;DHT22;51482;47.014;7.652;2022-11-20T06:05:42;6.20;99.90
64951;DHT22;51482;47.014;7.652;2022-11-20T06:08:07;6.10;99.90
64951;DHT22;51482;47.014;7.652;2022-11-20T06:10:33;6.10;99.90
64951;DHT22;51482;47.014;7.652;2022-11-20T06:12:58;5.60;99.90
64951;DHT22;51482;47.014;7.652;2022-11-20T06:15:24;6.30;99.90
64951;DHT22;51482;47.014;7.652;2022-11-20T06:17:53;6.10;99.90
64951;DHT22;51482;47.014;7.652;2022-11-20T06:20:20;6.20;99.90
64951;DHT22;51482;47.014;7.652;2022-11-20T06:22:46;5.60;99.90
64951;DHT22;51482;47.014;7.652;2022-11-20T06:25:11;6.20;99.90
64951;DHT22;51482;47.014;7.652;2022-11-20T06:27:37;6.50;99.90
64951;DHT22;51482;47.014;7.652;2022-11-20T06:30:03;6.20;99.90
64951;DHT22;51482;47.014;7.652;2022-11-20T06:32:29;5.70;99.90
64951;DHT22;51482;47.014;7.652;2022-11-20T06:34:55;5.70;99.90
64951;DHT22;51482;47.014;7.652;2022-11-20T06:37:20;6.20;99.90
64951;DHT22;51482;47.014;7.652;2022-11-20T06:39:46;5.70;99.90
64951;DHT22;51482;47.014;7.652;2022-11-20T06:42:11;6.30;99.90
64951;DHT22;51482;47.014;7.652;2022-11-20T06:44:37;6.40;99.90
64951;DHT22;51482;47.014;7.652;2022-11-20T06:47:02;6.40;99.90
64951;DHT22;51482;47.014;7.652;2022-11-20T06:49:28;5.80;99.90
64951;DHT22;51482;47.014;7.652;2022-11-20T06:51:53;6.20;99.90
64951;DHT22;51482;47.014;7.652;2022-11-20T06:54:19;5.20;99.90
64951;DHT22;51482;47.014;7.652;2022-11-20T06:56:48;6.50;99.90
64951;DHT22;51482;47.014;7.652;2022-11-20T06:59:13;5.70;99.90
64951;DHT22;51482;47.014;7.652;2022-11-20T07:01:39;6.20;99.90
64951;DHT22;51482;47.014;7.652;2022-11-20T07:04:04;5.90;99.90
64951;DHT22;51482;47.014;7.652;2022-11-20T07:06:30;5.70;99.90
64951;DHT22;51482;47.014;7.652;2022-11-20T07:08:56;5.80;99.90
64951;DHT22;51482;47.014;7.652;2022-11-20T07:11:22;6.20;99.90
64951;DHT22;51482;47.014;7.652;2022-11-20T07:13:47;6.30;99.90
64951;DHT22;51482;47.014;7.652;2022-11-20T07:16:13;6.20;99.90
64951;DHT22;51482;47.014;7.652;2022-11-20T07:18:38;6.30;99.90
64951;DHT22;51482;47.014;7.652;2022-11-20T07:21:06;5.70;99.90
64951;DHT22;51482;47.014;7.652;2022-11-20T07:23:32;6.20;99.90
64951;DHT22;51482;47.014;7.652;2022-11-20T07:25:58;5.90;99.90
64951;DHT22;51482;47.014;7.652;2022-11-20T07:28:30;6.40;99.90
64951;DHT22;51482;47.014;7.652;2022-11-20T07:30:55;6.00;99.90
64951;DHT22;51482;47.014;7.652;2022-11-20T07:33:21;6.10;99.90
64951;DHT22;51482;47.014;7.652;2022-11-20T07:35:46;6.40;99.90
64951;DHT22;51482;47.014;7.652;2022-11-20T07:38:12;5.90;99.90
64951;DHT22;51482;47.014;7.652;2022-11-20T07:40:38;6.40;99.90
64951;DHT22;51482;47.014;7.652;2022-11-20T07:43:04;6.60;99.90
64951;DHT22;51482;47.014;7.652;2022-11-20T07:45:29;6.60;99.90
64951;DHT22;51482;47.014;7.652;2022-11-20T07:47:55;6.00;99.90
64951;DHT22;51482;47.014;7.652;2022-11-20T07:50:20;6.10;99.90
64951;DHT22;51482;47.014;7.652;2022-11-20T07:52:46;6.60;99.90
64951;DHT22;51482;47.014;7.652;2022-11-20T07:55:12;6.10;99.90
64951;DHT22;51482;47.014;7.652;2022-11-20T07:57:38;6.70;99.90
64951;DHT22;51482;47.014;7.652;2022-11-20T08:00:06;6.20;99.90
64951;DHT22;51482;47.014;7.652;2022-11-20T08:02:34;6.20;99.90
64951;DHT22;51482;47.014;7.652;2022-11-20T08:05:02;6.20;99.90
64951;DHT22;51482;47.014;7.652;2022-11-20T08:07:28;6.20;99.90
64951;DHT22;51482;47.014;7.652;2022-11-20T08:09:53;6.70;99.90
64951;DHT22;51482;47.014;7.652;2022-11-20T08:12:20;5.90;99.90
64951;DHT22;51482;47.014;7.652;2022-11-20T08:15:05;6.30;99.90
64951;DHT22;51482;47.014;7.652;2022-11-20T08:17:31;6.30;99.90
64951;DHT22;51482;47.014;7.652;2022-11-20T08:19:57;6.30;99.90
64951;DHT22;51482;47.014;7.652;2022-11-20T08:22:23;6.30;99.90
64951;DHT22;51482;47.014;7.652;2022-11-20T08:24:48;6.70;99.90
64951;DHT22;51482;47.014;7.652;2022-11-20T08:27:14;6.90;99.90
64951;DHT22;51482;47.014;7.652;2022-11-20T08:29:40;6.90;99.90
64951;DHT22;51482;47.014;7.652;2022-11-20T08:32:05;6.90;99.90
64951;DHT22;51482;47.014;7.652;2022-11-20T08:34:31;6.90;99.90
64951;DHT22;51482;47.014;7.652;2022-11-20T08:36:56;6.60;99.90
64951;DHT22;51482;47.014;7.652;2022-11-20T08:39:22;6.40;99.90
64951;DHT22;51482;47.014;7.652;2022-11-20T08:41:47;6.90;99.90
64951;DHT22;51482;47.014;7.652;2022-11-20T08:44:13;7.90;99.90
64951;DHT22;51482;47.014;7.652;2022-11-20T08:46:40;7.80;99.90
64951;DHT22;51482;47.014;7.652;2022-11-20T08:49:08;7.60;99.90
64951;DHT22;51482;47.014;7.652;2022-11-20T08:51:34;7.40;99.90
64951;DHT22;51482;47.014;7.652;2022-11-20T08:54:00;7.40;99.90
64951;DHT22;51482;47.014;7.652;2022-11-20T08:56:26;7.50;99.90
64951;DHT22;51482;47.014;7.652;2022-11-20T08:58:52;7.40;99.90
64951;DHT22;51482;47.014;7.652;2022-11-20T09:01:19;7.50;99.90
64951;DHT22;51482;47.014;7.652;2022-11-20T09:03:45;8.00;99.90
64951;DHT22;51482;47.014;7.652;2022-11-20T09:06:12;7.10;99.90
64951;DHT22;51482;47.014;7.652;2022-11-20T09:08:37;7.40;99.90
64951;DHT22;51482;47.014;7.652;2022-11-20T09:11:03;7.60;99.90
64951;DHT22;51482;47.014;7.652;2022-11-20T09:13:29;7.90;99.90
64951;DHT22;51482;47.014;7.652;2022-11-20T09:15:57;7.90;99.90
64951;DHT22;51482;47.014;7.652;2022-11-20T09:18:23;7.60;99.90
64951;DHT22;51482;47.014;7.652;2022-11-20T09:20:49;7.70;99.90
64951;DHT22;51482;47.014;7.652;2022-11-20T09:23:15;7.50;99.90
64951;DHT22;51482;47.014;7.652;2022-11-20T09:25:41;8.20;99.90
64951;DHT22;51482;47.014;7.652;2022-11-20T09:28:07;7.80;99.90
64951;DHT22;51482;47.014;7.652;2022-11-20T09:30:33;7.70;99.90
64951;DHT22;51482;47.014;7.652;2022-11-20T09:32:58;7.60;99.90
64951;DHT22;51482;47.014;7.652;2022-11-20T09:35:24;7.50;99.90
64951;DHT22;51482;47.014;7.652;2022-11-20T09:37:49;8.00;99.90
64951;DHT22;51482;47.014;7.652;2022-11-20T09:40:26;7.50;99.90
64951;DHT22;51482;47.014;7.652;2022-11-20T09:46:29;7.50;99.90
64951;DHT22;51482;47.014;7.652;2022-11-20T09:54:13;8.20;99.90
64951;DHT22;51482;47.014;7.652;2022-11-20T09:56:44;8.70;99.90
64951;DHT22;51482;47.014;7.652;2022-11-20T09:59:49;8.90;99.90
64951;DHT22;51482;47.014;7.652;2022-11-20T10:05:02;9.80;99.90
64951;DHT22;51482;47.014;7.652;2022-11-20T10:10:03;11.10;99.90
64951;DHT22;51482;47.014;7.652;2022-11-20T10:15:46;12.00;99.90
64951;DHT22;51482;47.014;7.652;2022-11-20T10:26:53;12.80;99.90
64951;DHT22;51482;47.014;7.652;2022-11-20T10:29:29;13.10;99.90
64951;DHT22;51482;47.014;7.652;2022-11-20T10:32:07;13.40;99.90
64951;DHT22;51482;47.014;7.652;2022-11-20T10:34:55;13.80;99.90
64951;DHT22;51482;47.014;7.652;2022-11-20T10:37:26;14.20;99.90
64951;DHT22;51482;47.014;7.652;2022-11-20T10:40:00;14.30;99.90
64951;DHT22;51482;47.014;7.652;2022-11-20T10:42:33;14.20;99.90
64951;DHT22;51482;47.014;7.652;2022-11-20T10:45:15;14.30;99.90
64951;DHT22;51482;47.014;7.652;2022-11-20T10:47:44;13.90;99.90
64951;DHT22;51482;47.014;7.652;2022-11-20T10:50:16;13.50;99.90
64951;DHT22;51482;47.014;7.652;2022-11-20T10:53:02;14.00;99.90
64951;DHT22;51482;47.014;7.652;2022-11-20T11:00:24;13.50;99.90
64951;DHT22;51482;47.014;7.652;2022-11-20T11:02:52;12.90;99.90
64951;DHT22;51482;47.014;7.652;2022-11-20T11:05:44;13.50;99.90
64951;DHT22;51482;47.014;7.652;2022-11-20T11:08:17;13.50;99.90
64951;DHT22;51482;47.014;7.652;2022-11-20T11:11:00;13.70;99.90
64951;DHT22;51482;47.014;7.652;2022-11-20T11:13:29;14.10;99.90
64951;DHT22;51482;47.014;7.652;2022-11-20T11:15:55;14.30;99.90
64951;DHT22;51482;47.014;7.652;2022-11-20T11:18:31;13.80;97.80
64951;DHT22;51482;47.014;7.652;2022-11-20T11:21:00;13.80;99.20
64951;DHT22;51482;47.014;7.652;2022-11-20T11:23:40;13.70;99.30
64951;DHT22;51482;47.014;7.652;2022-11-20T11:26:20;13.30;98.80
64951;DHT22;51482;47.014;7.652;2022-11-20T11:28:55;13.90;98.70
64951;DHT22;51482;47.014;7.652;2022-11-20T11:31:29;13.40;98.50
64951;DHT22;51482;47.014;7.652;2022-11-20T11:34:12;13.30;99.40
64951;DHT22;51482;47.014;7.652;2022-11-20T11:36:38;13.30;99.90
64951;DHT22;51482;47.014;7.652;2022-11-20T11:39:08;12.20;99.30
64951;DHT22;51482;47.014;7.652;2022-11-20T11:41:36;11.80;99.90
64951;DHT22;51482;47.014;7.652;2022-11-20T11:44:23;12.60;99.90
64951;DHT22;51482;47.014;7.652;2022-11-20T11:49:43;12.70;99.00
64951;DHT22;51482;47.014;7.652;2022-11-20T11:52:13;12.00;98.50
64951;DHT22;51482;47.014;7.652;2022-11-20T11:54:45;12.30;99.20
64951;DHT22;51482;47.014;7.652;2022-11-20T11:57:26;11.80;99.10
64951;DHT22;51482;47.014;7.652;2022-11-20T12:05:20;12.10;97.40
64951;DHT22;51482;47.014;7.652;2022-11-20T12:10:58;12.20;98.90
64951;DHT22;51482;47.014;7.652;2022-11-20T12:16:00;12.40;99.40
64951;DHT22;51482;47.014;7.652;2022-11-20T12:18:27;12.70;98.00
64951;DHT22;51482;47.014;7.652;2022-11-20T12:21:02;12.40;97.00
64951;DHT22;51482;47.014;7.652;2022-11-20T12:23:53;11.60;96.70
64951;DHT22;51482;47.014;7.652;2022-11-20T12:39:41;11.70;96.20
64951;DHT22;51482;47.014;7.652;2022-11-20T12:42:39;11.70;95.60
64951;DHT22;51482;47.014;7.652;2022-11-20T12:48:52;12.20;97.90
64951;DHT22;51482;47.014;7.652;2022-11-20T12:51:32;12.50;96.20
64951;DHT22;51482;47.014;7.652;2022-11-20T12:54:04;12.50;94.60
64951;DHT22;51482;47.014;7.652;2022-11-20T12:56:50;12.80;94.30
64951;DHT22;51482;47.014;7.652;2022-11-20T13:07:07;13.60;93.40
64951;DHT22;51482;47.014;7.652;2022-11-20T13:09:39;13.70;92.80
64951;DHT22;51482;47.014;7.652;2022-11-20T13:12:22;14.20;99.90
64951;DHT22;51482;47.014;7.652;2022-11-20T13:15:29;14.70;99.90
64951;DHT22;51482;47.014;7.652;2022-11-20T13:18:01;14.80;96.60
64951;DHT22;51482;47.014;7.652;2022-11-20T13:20:29;15.40;95.70
64951;DHT22;51482;47.014;7.652;2022-11-20T13:22:56;15.50;90.60
64951;DHT22;51482;47.014;7.652;2022-11-20T13:27:52;15.70;91.60
64951;DHT22;51482;47.014;7.652;2022-11-20T13:30:20;16.40;91.60
64951;DHT22;51482;47.014;7.652;2022-11-20T13:32:58;16.00;88.90
64951;DHT22;51482;47.014;7.652;2022-11-20T13:35:33;16.20;89.10
64951;DHT22;51482;47.014;7.652;2022-11-20T13:38:13;16.10;86.90
64951;DHT22;51482;47.014;7.652;2022-11-20T13:48:28;15.90;80.30
64951;DHT22;51482;47.014;7.652;2022-11-20T13:51:21;15.50;77.70
64951;DHT22;51482;47.014;7.652;2022-11-20T13:56:34;14.60;79.00
64951;DHT22;51482;47.014;7.652;2022-11-20T14:01:45;14.70;80.70
64951;DHT22;51482;47.014;7.652;2022-11-20T14:04:18;14.50;82.80
64951;DHT22;51482;47.014;7.652;2022-11-20T14:06:46;13.80;84.90
64951;DHT22;51482;47.014;7.652;2022-11-20T14:09:26;13.30;88.70
64951;DHT22;51482;47.014;7.652;2022-11-20T14:11:52;13.80;88.20
64951;DHT22;51482;47.014;7.652;2022-11-20T14:14:20;14.30;88.60
64951;DHT22;51482;47.014;7.652;2022-11-20T14:16:47;14.50;89.50
64951;DHT22;51482;47.014;7.652;2022-11-20T14:21:45;14.90;88.00
64951;DHT22;51482;47.014;7.652;2022-11-20T14:24:12;15.10;87.00
64951;DHT22;51482;47.014;7.652;2022-11-20T14:26:42;15.20;87.20
64951;DHT22;51482;47.014;7.652;2022-11-20T14:29:23;15.20;85.40
64951;DHT22;51482;47.014;7.652;2022-11-20T14:31:52;15.20;85.20
64951;DHT22;51482;47.014;7.652;2022-11-20T14:34:25;14.90;84.80
64951;DHT22;51482;47.014;7.652;2022-11-20T14:37:17;14.70;84.50
64951;DHT22;51482;47.014;7.652;2022-11-20T14:39:55;13.70;87.00
64951;DHT22;51482;47.014;7.652;2022-11-20T14:42:23;13.20;89.40
64951;DHT22;51482;47.014;7.652;2022-11-20T14:44:50;13.00;90.30
64951;DHT22;51482;47.014;7.652;2022-11-20T14:47:23;12.90;90.80
64951;DHT22;51482;47.014;7.652;2022-11-20T14:49:50;12.70;92.10
64951;DHT22;51482;47.014;7.652;2022-11-20T14:52:22;12.70;90.40
64951;DHT22;51482;47.014;7.652;2022-11-20T14:54:53;12.70;91.40
64951;DHT22;51482;47.014;7.652;2022-11-20T14:57:45;12.60;91.00
64951;DHT22;51482;47.014;7.652;2022-11-20T15:00:21;12.40;90.60
64951;DHT22;51482;47.014;7.652;2022-11-20T15:02:51;12.20;91.90
64951;DHT22;51482;47.014;7.652;2022-11-20T15:05:19;12.10;91.70
64951;DHT22;51482;47.014;7.652;2022-11-20T15:07:49;12.10;92.90
64951;DHT22;51482;47.014;7.652;2022-11-20T15:10:24;11.80;92.10
64951;DHT22;51482;47.014;7.652;2022-11-20T15:12:55;11.40;92.50
64951;DHT22;51482;47.014;7.652;2022-11-20T15:20:58;10.90;94.20
64951;DHT22;51482;47.014;7.652;2022-11-20T15:23:26;10.80;95.20
64951;DHT22;51482;47.014;7.652;2022-11-20T15:25:52;10.70;95.40
64951;DHT22;51482;47.014;7.652;2022-11-20T15:30:45;10.10;97.20
64951;DHT22;51482;47.014;7.652;2022-11-20T15:33:11;10.00;97.60
64951;DHT22;51482;47.014;7.652;2022-11-20T15:35:37;9.90;98.30
64951;DHT22;51482;47.014;7.652;2022-11-20T15:38:02;9.80;98.40
64951;DHT22;51482;47.014;7.652;2022-11-20T15:40:28;10.30;98.80
64951;DHT22;51482;47.014;7.652;2022-11-20T15:42:53;10.00;99.60
64951;DHT22;51482;47.014;7.652;2022-11-20T15:45:30;9.60;99.90
64951;DHT22;51482;47.014;7.652;2022-11-20T15:47:56;9.30;99.90
64951;DHT22;51482;47.014;7.652;2022-11-20T15:50:26;9.60;99.90
64951;DHT22;51482;47.014;7.652;2022-11-20T15:52:52;9.10;99.90
64951;DHT22;51482;47.014;7.652;2022-11-20T15:55:18;9.10;99.90
64951;DHT22;51482;47.014;7.652;2022-11-20T15:57:43;9.00;99.90
64951;DHT22;51482;47.014;7.652;2022-11-20T16:00:09;9.00;99.90
64951;DHT22;51482;47.014;7.652;2022-11-20T16:02:35;9.00;99.90
64951;DHT22;51482;47.014;7.652;2022-11-20T16:05:01;8.90;99.90
64951;DHT22;51482;47.014;7.652;2022-11-20T16:07:26;8.80;99.90
64951;DHT22;51482;47.014;7.652;2022-11-20T16:09:52;8.80;99.90
64951;DHT22;51482;47.014;7.652;2022-11-20T16:12:17;8.70;99.90
64951;DHT22;51482;47.014;7.652;2022-11-20T16:15:03;8.70;99.90
64951;DHT22;51482;47.014;7.652;2022-11-20T16:18:01;8.60;99.90
64951;DHT22;51482;47.014;7.652;2022-11-20T16:20:26;8.50;99.90
64951;DHT22;51482;47.014;7.652;2022-11-20T16:22:52;8.40;99.90
64951;DHT22;51482;47.014;7.652;2022-11-20T16:25:17;8.40;99.90
64951;DHT22;51482;47.014;7.652;2022-11-20T16:27:43;8.30;99.90
64951;DHT22;51482;47.014;7.652;2022-11-20T16:30:09;8.30;99.90
64951;DHT22;51482;47.014;7.652;2022-11-20T16:32:35;8.30;99.90
64951;DHT22;51482;47.014;7.652;2022-11-20T16:35:00;8.20;99.90
64951;DHT22;51482;47.014;7.652;2022-11-20T16:37:26;8.20;99.90
64951;DHT22;51482;47.014;7.652;2022-11-20T16:39:54;8.10;99.90
64951;DHT22;51482;47.014;7.652;2022-11-20T16:42:21;8.10;99.90
64951;DHT22;51482;47.014;7.652;2022-11-20T16:44:47;8.50;99.90
64951;DHT22;51482;47.014;7.652;2022-11-20T16:47:12;8.10;99.90
64951;DHT22;51482;47.014;7.652;2022-11-20T16:49:38;8.10;99.90
64951;DHT22;51482;47.014;7.652;2022-11-20T16:52:03;8.50;99.90
64951;DHT22;51482;47.014;7.652;2022-11-20T16:54:29;8.10;99.90
64951;DHT22;51482;47.014;7.652;2022-11-20T16:56:54;7.30;99.90
64951;DHT22;51482;47.014;7.652;2022-11-20T16:59:20;7.80;99.90
64951;DHT22;51482;47.014;7.652;2022-11-20T17:01:45;7.70;99.90
64951;DHT22;51482;47.014;7.652;2022-11-20T17:04:11;7.70;99.90
64951;DHT22;51482;47.014;7.652;2022-11-20T17:06:39;7.80;99.90
64951;DHT22;51482;47.014;7.652;2022-11-20T17:09:06;8.30;99.90
64951;DHT22;51482;47.014;7.652;2022-11-20T17:11:34;8.40;99.90
64951;DHT22;51482;47.014;7.652;2022-11-20T17:14:00;7.80;99.90
64951;DHT22;51482;47.014;7.652;2022-11-20T17:16:32;7.70;99.90
64951;DHT22;51482;47.014;7.652;2022-11-20T17:18:59;7.60;99.90
64951;DHT22;51482;47.014;7.652;2022-11-20T17:21:24;7.60;99.90
64951;DHT22;51482;47.014;7.652;2022-11-20T17:23:51;7.60;99.90
64951;DHT22;51482;47.014;7.652;2022-11-20T17:26:21;7.60;99.90
64951;DHT22;51482;47.014;7.652;2022-11-20T17:28:59;7.60;99.90
64951;DHT22;51482;47.014;7.652;2022-11-20T17:31:26;7.50;99.90